Adams, Indiana
Current Conditions -  °F | °C
As of 2:53 AM on Monday 26 Jan 2015 (Local Time) from KGEZ Reporting Station
Overcast Overcast  
Wind Chill: -12°   Ceiling: 1600
Heat Index: -6°   Visibility: 10mi
Dew Point: -9°   Wind: 13mph
Humidity: 78%   Direction: 20°NNE
Pressure: 29.84"   Gusts: NA
Location:  39.3206°N, 85.4768°W
Report Text: KGEZ 260753Z AUTO 02011KT 10SM OVC016 M06/M09 A2984 RMK AO2 SLP111 T10561089
Loading
Personal Weather Stations






























Interactive Weather Map New forecast layout! Learn more

10-Day Weather Forecast

Advertisements
Track Severe Weather on mobile